38分钟前
罗盘
风向 的 风向 260° Borken-Hoxfeld Airport 12/30
风: 8 千吨, 3 beaufort
0 500 1.500 3.000 5.000 8.000 10.000
FEW 1.200 ft
METAR EDDL 291750Z 26008KT 9999 FEW012 04/03 Q1011 NOSIG

METAR定义 | 嵌入

24小时趋势

航班类别VFRLIFR
温度5 °C-2 °C
风速10 千吨0 千吨
能见度10 公里+0 米

更多历史数据

下载我们的安卓应用程序

从你的主屏幕上轻松地访问你的航空天气。
只需一次付费,您就可以获得无广告的体验。

您会帮助我们保持Metar-Taf.com正常运行吗?
您的贡献有助于网站的进一步开发并支付费用。

没有更多广告

您是捐款5美元还是更多?然后,我们将永远不会再向您展示广告,这是我们永恒的感谢!
捐赠前先登录

METAR Borken-Hoxfeld Airport

Borken-Hoxfeld Airport是Borken,德国中的小机场。 机场有{a,plural,=1{一条跑道} other{#跑道}}: 12/30

Borken-Hoxfeld Airport最近未发布观察结果。相反,我们向您显示63 km的报告Düsseldorf Airport。 该报告是针对2021年11月29日 18:50, 当地时间进行的。

机场观察

风来自西 (260°)方向,速度为8 千吨。

可见度为10 公里 或者更多。

有几云在1.200 ft的高度。 没有观察到天花板。

温度为4 °C,阵风为-1 °C。 露点为3 °C,相对湿度为93%。 海平面上的气压为1011 压力 (QNH)。

白天

今天,太阳从08:15升起,在16:27降落。 这适用于Borken-Hoxfeld Airport,世界夏令时可能有所不同。 当地时间与世界标准时间之间的时差为+1 小时。 当前,没有夏令时有效。

公司介绍

我们没有关于这个机场的公司信息。

体会

到Vliegles.nl去找飞行课程,跳伞和其他飞行体验。 浏览页面,了解Borken-Hoxfeld Airport附近所有可用的活动。 你也可以使用搜索功能来寻找你所在地附近的特定飞行课程、跳伞或其他飞行体验。

您是否要在网站上Borken-Hoxfeld Airport飞行的天气? 阅读更多   自由!